sensor_id;sensor_type;location;lat;lon;timestamp;pressure;altitude;pressure_sealevel;temperature;humidity
11339;BME280;5724;42.684;23.252;2023-08-24T00:02:01;94503.56;;;22.53;70.36
11339;BME280;5724;42.684;23.252;2023-08-24T00:04:27;94500.25;;;22.58;70.28
11339;BME280;5724;42.684;23.252;2023-08-24T00:06:53;94503.47;;;22.56;70.73
11339;BME280;5724;42.684;23.252;2023-08-24T00:09:18;94501.19;;;22.51;71.05
11339;BME280;5724;42.684;23.252;2023-08-24T00:11:44;94496.75;;;22.54;70.98
11339;BME280;5724;42.684;23.252;2023-08-24T00:14:09;94493.28;;;22.50;70.80
11339;BME280;5724;42.684;23.252;2023-08-24T00:16:35;94496.41;;;22.52;70.84
11339;BME280;5724;42.684;23.252;2023-08-24T00:19:00;94487.09;;;22.42;71.04
11339;BME280;5724;42.684;23.252;2023-08-24T00:21:26;94485.78;;;22.47;70.96
11339;BME280;5724;42.684;23.252;2023-08-24T00:23:52;94488.00;;;22.36;71.63
11339;BME280;5724;42.684;23.252;2023-08-24T00:26:18;94487.31;;;22.32;71.63
11339;BME280;5724;42.684;23.252;2023-08-24T00:28:43;94489.91;;;22.22;71.67
11339;BME280;5724;42.684;23.252;2023-08-24T00:31:09;94482.97;;;22.31;71.64
11339;BME280;5724;42.684;23.252;2023-08-24T00:33:35;94488.59;;;22.27;71.96
11339;BME280;5724;42.684;23.252;2023-08-24T00:36:01;94487.97;;;22.19;72.06
11339;BME280;5724;42.684;23.252;2023-08-24T00:38:26;94492.59;;;22.06;72.77
11339;BME280;5724;42.684;23.252;2023-08-24T00:40:52;94491.97;;;22.18;72.28
11339;BME280;5724;42.684;23.252;2023-08-24T00:43:19;94493.69;;;22.12;72.68
11339;BME280;5724;42.684;23.252;2023-08-24T00:45:50;94492.59;;;22.06;72.64
11339;BME280;5724;42.684;23.252;2023-08-24T00:48:17;94500.88;;;22.10;72.74
11339;BME280;5724;42.684;23.252;2023-08-24T00:50:43;94499.84;;;22.00;72.75
11339;BME280;5724;42.684;23.252;2023-08-24T00:53:08;94498.72;;;21.97;72.55
11339;BME280;5724;42.684;23.252;2023-08-24T00:55:34;94491.16;;;21.98;73.32
11339;BME280;5724;42.684;23.252;2023-08-24T00:58:00;94492.31;;;22.00;73.34
11339;BME280;5724;42.684;23.252;2023-08-24T01:00:26;94495.50;;;21.99;73.49
11339;BME280;5724;42.684;23.252;2023-08-24T01:02:51;94495.69;;;21.92;73.85
11339;BME280;5724;42.684;23.252;2023-08-24T01:05:17;94510.28;;;21.96;74.01
11339;BME280;5724;42.684;23.252;2023-08-24T01:07:42;94500.88;;;21.90;74.29
11339;BME280;5724;42.684;23.252;2023-08-24T01:10:10;94496.94;;;21.87;74.46
11339;BME280;5724;42.684;23.252;2023-08-24T01:13:17;94499.69;;;21.91;74.47
11339;BME280;5724;42.684;23.252;2023-08-24T01:18:42;94493.28;;;21.90;73.52
11339;BME280;5724;42.684;23.252;2023-08-24T01:21:09;94483.38;;;21.89;73.79
11339;BME280;5724;42.684;23.252;2023-08-24T01:26:14;94477.41;;;21.91;73.52
11339;BME280;5724;42.684;23.252;2023-08-24T01:28:43;94483.81;;;21.88;73.20
11339;BME280;5724;42.684;23.252;2023-08-24T01:31:09;94492.81;;;21.95;73.18
11339;BME280;5724;42.684;23.252;2023-08-24T01:33:34;94489.72;;;21.90;74.00
11339;BME280;5724;42.684;23.252;2023-08-24T01:36:00;94481.47;;;21.86;74.29
11339;BME280;5724;42.684;23.252;2023-08-24T01:38:27;94483.56;;;21.82;74.46
11339;BME280;5724;42.684;23.252;2023-08-24T01:43:29;94490.88;;;21.73;75.40
11339;BME280;5724;42.684;23.252;2023-08-24T01:45:59;94492.28;;;21.61;75.50
11339;BME280;5724;42.684;23.252;2023-08-24T01:48:25;94498.47;;;21.49;76.19
11339;BME280;5724;42.684;23.252;2023-08-24T01:50:51;94503.75;;;21.43;76.36
11339;BME280;5724;42.684;23.252;2023-08-24T01:53:17;94500.34;;;21.32;77.17
11339;BME280;5724;42.684;23.252;2023-08-24T01:55:45;94504.72;;;21.33;77.21
11339;BME280;5724;42.684;23.252;2023-08-24T01:58:10;94502.66;;;21.37;77.33
11339;BME280;5724;42.684;23.252;2023-08-24T02:00:36;94502.75;;;21.33;77.65
11339;BME280;5724;42.684;23.252;2023-08-24T02:03:01;94495.88;;;21.14;78.21
11339;BME280;5724;42.684;23.252;2023-08-24T02:05:27;94495.88;;;21.14;78.34
11339;BME280;5724;42.684;23.252;2023-08-24T02:07:54;94504.56;;;20.93;79.53
11339;BME280;5724;42.684;23.252;2023-08-24T02:10:19;94500.44;;;21.01;79.64
11339;BME280;5724;42.684;23.252;2023-08-24T02:12:45;94498.84;;;21.04;79.19
11339;BME280;5724;42.684;23.252;2023-08-24T02:15:10;94501.66;;;21.00;78.57
11339;BME280;5724;42.684;23.252;2023-08-24T02:17:36;94511.13;;;21.03;78.28
11339;BME280;5724;42.684;23.252;2023-08-24T02:20:02;94512.34;;;21.02;77.91
11339;BME280;5724;42.684;23.252;2023-08-24T02:22:29;94510.44;;;20.99;78.57
11339;BME280;5724;42.684;23.252;2023-08-24T02:24:55;94517.09;;;20.78;79.11
11339;BME280;5724;42.684;23.252;2023-08-24T02:27:21;94512.28;;;20.82;78.65
11339;BME280;5724;42.684;23.252;2023-08-24T02:29:46;94509.38;;;20.89;78.57
11339;BME280;5724;42.684;23.252;2023-08-24T02:32:12;94511.38;;;20.89;78.41
11339;BME280;5724;42.684;23.252;2023-08-24T02:34:37;94504.16;;;20.95;78.46
11339;BME280;5724;42.684;23.252;2023-08-24T02:37:04;94502.63;;;20.90;79.54
11339;BME280;5724;42.684;23.252;2023-08-24T02:39:29;94502.63;;;20.90;80.09
11339;BME280;5724;42.684;23.252;2023-08-24T02:41:55;94489.63;;;20.83;80.61
11339;BME280;5724;42.684;23.252;2023-08-24T02:44:20;94481.38;;;20.80;80.69
11339;BME280;5724;42.684;23.252;2023-08-24T02:46:47;94483.78;;;20.78;81.32
11339;BME280;5724;42.684;23.252;2023-08-24T02:49:13;94481.44;;;20.76;81.53
11339;BME280;5724;42.684;23.252;2023-08-24T02:51:39;94481.81;;;20.75;81.39
11339;BME280;5724;42.684;23.252;2023-08-24T02:54:04;94475.19;;;20.69;81.74
11339;BME280;5724;42.684;23.252;2023-08-24T02:56:30;94486.41;;;20.62;81.33
11339;BME280;5724;42.684;23.252;2023-08-24T02:58:56;94476.75;;;20.70;81.30
11339;BME280;5724;42.684;23.252;2023-08-24T03:01:21;94482.75;;;20.68;80.99
11339;BME280;5724;42.684;23.252;2023-08-24T03:03:47;94477.44;;;20.77;80.67
11339;BME280;5724;42.684;23.252;2023-08-24T03:06:12;94487.88;;;20.70;81.23
11339;BME280;5724;42.684;23.252;2023-08-24T03:08:38;94492.25;;;20.40;82.73
11339;BME280;5724;42.684;23.252;2023-08-24T03:11:03;94490.19;;;20.48;82.16
11339;BME280;5724;42.684;23.252;2023-08-24T03:13:30;94494.94;;;20.17;83.75
11339;BME280;5724;42.684;23.252;2023-08-24T03:15:55;94502.31;;;19.96;84.06
11339;BME280;5724;42.684;23.252;2023-08-24T03:18:21;94499.88;;;19.71;85.32
11339;BME280;5724;42.684;23.252;2023-08-24T03:20:48;94503.41;;;19.72;85.81
11339;BME280;5724;42.684;23.252;2023-08-24T03:23:15;94517.31;;;19.68;85.48
11339;BME280;5724;42.684;23.252;2023-08-24T03:25:41;94516.63;;;19.57;85.88
11339;BME280;5724;42.684;23.252;2023-08-24T03:28:08;94528.84;;;19.63;85.71
11339;BME280;5724;42.684;23.252;2023-08-24T03:30:35;94529.56;;;19.71;85.16
11339;BME280;5724;42.684;23.252;2023-08-24T03:33:01;94526.78;;;19.71;85.21
11339;BME280;5724;42.684;23.252;2023-08-24T03:35:28;94530.72;;;19.73;85.28
11339;BME280;5724;42.684;23.252;2023-08-24T03:37:55;94532.16;;;19.85;84.63
11339;BME280;5724;42.684;23.252;2023-08-24T03:40:20;94525.00;;;19.88;84.35
11339;BME280;5724;42.684;23.252;2023-08-24T03:42:46;94526.13;;;19.94;84.94
11339;BME280;5724;42.684;23.252;2023-08-24T03:45:11;94532.44;;;19.98;85.54
11339;BME280;5724;42.684;23.252;2023-08-24T03:47:36;94543.13;;;19.96;85.20
11339;BME280;5724;42.684;23.252;2023-08-24T03:50:02;94536.00;;;19.98;85.28
11339;BME280;5724;42.684;23.252;2023-08-24T03:52:27;94548.16;;;20.08;84.48
11339;BME280;5724;42.684;23.252;2023-08-24T03:54:53;94546.19;;;20.09;83.97
11339;BME280;5724;42.684;23.252;2023-08-24T03:57:18;94541.72;;;20.15;84.02
11339;BME280;5724;42.684;23.252;2023-08-24T03:59:44;94538.16;;;20.14;84.20
11339;BME280;5724;42.684;23.252;2023-08-24T04:02:09;94533.03;;;20.13;84.04
11339;BME280;5724;42.684;23.252;2023-08-24T04:04:35;94538.13;;;20.18;84.24
11339;BME280;5724;42.684;23.252;2023-08-24T04:07:00;94536.94;;;20.19;84.00
11339;BME280;5724;42.684;23.252;2023-08-24T04:09:27;94541.59;;;20.25;83.79
11339;BME280;5724;42.684;23.252;2023-08-24T04:11:53;94540.81;;;20.25;83.81
11339;BME280;5724;42.684;23.252;2023-08-24T04:14:18;94536.38;;;20.31;83.61
11339;BME280;5724;42.684;23.252;2023-08-24T04:16:43;94548.69;;;20.26;83.24
11339;BME280;5724;42.684;23.252;2023-08-24T04:19:09;94536.72;;;20.33;83.61
11339;BME280;5724;42.684;23.252;2023-08-24T04:21:35;94539.88;;;20.35;83.68
11339;BME280;5724;42.684;23.252;2023-08-24T04:24:09;94536.38;;;20.31;84.52
11339;BME280;5724;42.684;23.252;2023-08-24T04:26:34;94539.16;;;20.31;83.84
11339;BME280;5724;42.684;23.252;2023-08-24T04:29:00;94533.13;;;20.36;83.74
11339;BME280;5724;42.684;23.252;2023-08-24T04:31:25;94537.84;;;20.39;83.73
11339;BME280;5724;42.684;23.252;2023-08-24T04:33:50;94544.13;;;20.47;83.69
11339;BME280;5724;42.684;23.252;2023-08-24T04:36:16;94546.84;;;20.50;82.94
11339;BME280;5724;42.684;23.252;2023-08-24T04:38:41;94551.75;;;20.36;83.47
11339;BME280;5724;42.684;23.252;2023-08-24T04:41:08;94548.69;;;20.26;84.44
11339;BME280;5724;42.684;23.252;2023-08-24T04:43:35;94548.75;;;20.23;84.21
11339;BME280;5724;42.684;23.252;2023-08-24T04:46:03;94552.19;;;20.34;83.70
11339;BME280;5724;42.684;23.252;2023-08-24T04:48:29;94546.31;;;20.28;83.28
11339;BME280;5724;42.684;23.252;2023-08-24T04:51:01;94552.47;;;20.47;82.38
11339;BME280;5724;42.684;23.252;2023-08-24T04:53:27;94541.72;;;20.49;82.18
11339;BME280;5724;42.684;23.252;2023-08-24T04:55:53;94544.16;;;20.43;81.87
11339;BME280;5724;42.684;23.252;2023-08-24T04:58:19;94544.34;;;20.60;82.08
11339;BME280;5724;42.684;23.252;2023-08-24T05:00:45;94547.03;;;20.67;82.14
11339;BME280;5724;42.684;23.252;2023-08-24T05:03:10;94553.78;;;20.66;83.06
11339;BME280;5724;42.684;23.252;2023-08-24T05:05:37;94549.31;;;20.72;83.22
11339;BME280;5724;42.684;23.252;2023-08-24T05:08:04;94551.78;;;20.66;83.05
11339;BME280;5724;42.684;23.252;2023-08-24T05:10:37;94544.69;;;20.62;82.71
11339;BME280;5724;42.684;23.252;2023-08-24T05:13:03;94560.13;;;20.66;82.65
11339;BME280;5724;42.684;23.252;2023-08-24T05:15:29;94550.75;;;20.56;82.56
11339;BME280;5724;42.684;23.252;2023-08-24T05:17:54;94564.22;;;20.54;82.58
11339;BME280;5724;42.684;23.252;2023-08-24T05:20:24;94554.94;;;20.38;83.65
11339;BME280;5724;42.684;23.252;2023-08-24T05:22:49;94558.78;;;20.47;83.58
11339;BME280;5724;42.684;23.252;2023-08-24T05:25:15;94564.56;;;20.26;84.54
11339;BME280;5724;42.684;23.252;2023-08-24T05:27:43;94563.41;;;20.23;83.85
11339;BME280;5724;42.684;23.252;2023-08-24T05:30:09;94558.66;;;20.24;83.80
11339;BME280;5724;42.684;23.252;2023-08-24T05:32:35;94559.69;;;20.37;83.66
11339;BME280;5724;42.684;23.252;2023-08-24T05:35:07;94573.66;;;20.61;82.99
11339;BME280;5724;42.684;23.252;2023-08-24T05:37:33;94574.88;;;20.60;81.51
11339;BME280;5724;42.684;23.252;2023-08-24T05:39:59;94588.56;;;20.74;80.77
11339;BME280;5724;42.684;23.252;2023-08-24T05:42:25;94590.91;;;20.45;82.23
11339;BME280;5724;42.684;23.252;2023-08-24T05:44:51;94587.22;;;20.55;82.03
11339;BME280;5724;42.684;23.252;2023-08-24T05:47:16;94589.41;;;20.71;81.61
11339;BME280;5724;42.684;23.252;2023-08-24T05:49:42;94586.81;;;20.83;81.81
11339;BME280;5724;42.684;23.252;2023-08-24T05:52:07;94582.31;;;20.93;81.86
11339;BME280;5724;42.684;23.252;2023-08-24T05:54:33;94600.78;;;21.07;79.59
11339;BME280;5724;42.684;23.252;2023-08-24T05:56:58;94609.38;;;21.16;78.28
11339;BME280;5724;42.684;23.252;2023-08-24T05:59:27;94598.97;;;21.20;78.68
11339;BME280;5724;42.684;23.252;2023-08-24T06:01:52;94599.31;;;21.26;78.00
11339;BME280;5724;42.684;23.252;2023-08-24T06:04:18;94592.41;;;21.37;78.22
11339;BME280;5724;42.684;23.252;2023-08-24T06:06:43;94594.63;;;21.46;78.36
11339;BME280;5724;42.684;23.252;2023-08-24T06:09:09;94596.03;;;21.58;77.19
11339;BME280;5724;42.684;23.252;2023-08-24T06:11:35;94595.78;;;21.72;76.83
11339;BME280;5724;42.684;23.252;2023-08-24T06:14:01;94591.53;;;21.87;76.07
11339;BME280;5724;42.684;23.252;2023-08-24T06:16:28;94594.63;;;21.93;76.34
11339;BME280;5724;42.684;23.252;2023-08-24T06:18:53;94595.88;;;22.12;75.59
11339;BME280;5724;42.684;23.252;2023-08-24T06:21:19;94597.72;;;22.18;75.02
11339;BME280;5724;42.684;23.252;2023-08-24T06:23:44;94594.25;;;22.34;74.59
11339;BME280;5724;42.684;23.252;2023-08-24T06:26:10;94584.97;;;22.41;74.52
11339;BME280;5724;42.684;23.252;2023-08-24T06:28:35;94586.66;;;22.54;73.72
11339;BME280;5724;42.684;23.252;2023-08-24T06:31:01;94593.66;;;22.63;73.10
11339;BME280;5724;42.684;23.252;2023-08-24T06:33:28;94595.56;;;22.66;73.22
11339;BME280;5724;42.684;23.252;2023-08-24T06:35:56;94597.00;;;22.74;73.57
11339;BME280;5724;42.684;23.252;2023-08-24T06:38:22;94597.50;;;22.89;72.14
11339;BME280;5724;42.684;23.252;2023-08-24T06:40:47;94597.13;;;22.87;72.45
11339;BME280;5724;42.684;23.252;2023-08-24T06:43:13;94598.53;;;22.95;72.67
11339;BME280;5724;42.684;23.252;2023-08-24T06:45:39;94598.69;;;23.07;72.11
11339;BME280;5724;42.684;23.252;2023-08-24T06:48:05;94593.00;;;23.11;71.84
11339;BME280;5724;42.684;23.252;2023-08-24T06:50:32;94598.22;;;23.09;70.82
11339;BME280;5724;42.684;23.252;2023-08-24T06:52:58;94597.53;;;23.21;71.16
11339;BME280;5724;42.684;23.252;2023-08-24T06:55:23;94596.50;;;23.31;70.11
11339;BME280;5724;42.684;23.252;2023-08-24T06:57:49;94594.78;;;23.37;70.07
11339;BME280;5724;42.684;23.252;2023-08-24T07:00:21;94594.88;;;23.66;68.52
11339;BME280;5724;42.684;23.252;2023-08-24T07:02:47;94587.25;;;23.99;68.19
11339;BME280;5724;42.684;23.252;2023-08-24T07:05:13;94584.91;;;24.27;66.92
11339;BME280;5724;42.684;23.252;2023-08-24T07:07:38;94588.91;;;24.42;65.54
11339;BME280;5724;42.684;23.252;2023-08-24T07:10:04;94575.16;;;24.48;64.13
11339;BME280;5724;42.684;23.252;2023-08-24T07:12:31;94578.84;;;24.45;64.75
11339;BME280;5724;42.684;23.252;2023-08-24T07:14:57;94574.22;;;24.80;63.68
11339;BME280;5724;42.684;23.252;2023-08-24T07:17:22;94579.41;;;25.07;63.71
11339;BME280;5724;42.684;23.252;2023-08-24T07:19:48;94576.19;;;25.34;62.61
11339;BME280;5724;42.684;23.252;2023-08-24T07:22:13;94571.00;;;25.45;61.89
11339;BME280;5724;42.684;23.252;2023-08-24T07:24:39;94577.81;;;25.69;61.13
11339;BME280;5724;42.684;23.252;2023-08-24T07:27:04;94569.72;;;25.97;59.65
11339;BME280;5724;42.684;23.252;2023-08-24T07:29:30;94570.22;;;26.05;58.62
11339;BME280;5724;42.684;23.252;2023-08-24T07:31:56;94577.03;;;25.69;59.24
11339;BME280;5724;42.684;23.252;2023-08-24T07:34:21;94577.06;;;25.44;59.76
11339;BME280;5724;42.684;23.252;2023-08-24T07:36:48;94569.09;;;25.55;58.73
11339;BME280;5724;42.684;23.252;2023-08-24T07:39:14;94581.50;;;25.79;57.08
11339;BME280;5724;42.684;23.252;2023-08-24T07:41:59;94576.94;;;26.07;56.10
11339;BME280;5724;42.684;23.252;2023-08-24T07:44:24;94577.28;;;26.09;55.03
11339;BME280;5724;42.684;23.252;2023-08-24T07:46:50;94575.88;;;26.27;54.21
11339;BME280;5724;42.684;23.252;2023-08-24T07:49:15;94576.50;;;26.65;53.58
11339;BME280;5724;42.684;23.252;2023-08-24T07:51:41;94573.00;;;26.61;53.49
11339;BME280;5724;42.684;23.252;2023-08-24T07:54:08;94571.34;;;26.64;53.84
11339;BME280;5724;42.684;23.252;2023-08-24T07:56:33;94572.56;;;26.85;53.65
11339;BME280;5724;42.684;23.252;2023-08-24T07:58:59;94567.69;;;27.07;53.73
11339;BME280;5724;42.684;23.252;2023-08-24T08:01:24;94575.31;;;27.37;52.49
11339;BME280;5724;42.684;23.252;2023-08-24T08:03:50;94570.72;;;27.62;51.72
11339;BME280;5724;42.684;23.252;2023-08-24T08:06:15;94572.72;;;27.52;50.27
11339;BME280;5724;42.684;23.252;2023-08-24T08:08:41;94576.13;;;27.47;50.49
11339;BME280;5724;42.684;23.252;2023-08-24T08:11:06;94576.63;;;27.55;50.64
11339;BME280;5724;42.684;23.252;2023-08-24T08:13:32;94569.53;;;27.72;50.28
11339;BME280;5724;42.684;23.252;2023-08-24T08:16:03;94562.72;;;28.10;49.55
11339;BME280;5724;42.684;23.252;2023-08-24T08:18:30;94564.28;;;28.20;48.84
11339;BME280;5724;42.684;23.252;2023-08-24T08:20:56;94572.25;;;28.58;48.31
11339;BME280;5724;42.684;23.252;2023-08-24T08:23:21;94569.84;;;28.75;48.38
11339;BME280;5724;42.684;23.252;2023-08-24T08:25:46;94566.56;;;28.95;47.75
11339;BME280;5724;42.684;23.252;2023-08-24T08:28:12;94567.72;;;28.51;46.16
11339;BME280;5724;42.684;23.252;2023-08-24T08:30:38;94560.69;;;28.47;46.13
11339;BME280;5724;42.684;23.252;2023-08-24T08:33:03;94567.38;;;28.77;45.74
11339;BME280;5724;42.684;23.252;2023-08-24T08:35:30;94567.66;;;29.06;45.05
11339;BME280;5724;42.684;23.252;2023-08-24T08:37:55;94558.50;;;29.21;45.03
11339;BME280;5724;42.684;23.252;2023-08-24T08:40:21;94555.28;;;29.46;44.91
11339;BME280;5724;42.684;23.252;2023-08-24T08:42:46;94554.38;;;29.40;43.60
11339;BME280;5724;42.684;23.252;2023-08-24T08:45:12;94557.31;;;29.55;43.12
11339;BME280;5724;42.684;23.252;2023-08-24T08:47:38;94543.91;;;29.74;43.48
11339;BME280;5724;42.684;23.252;2023-08-24T08:50:06;94549.28;;;29.86;43.43
11339;BME280;5724;42.684;23.252;2023-08-24T08:52:32;94545.88;;;30.06;43.62
11339;BME280;5724;42.684;23.252;2023-08-24T08:54:58;94551.28;;;30.19;43.36
11339;BME280;5724;42.684;23.252;2023-08-24T08:57:25;94547.09;;;30.14;43.17
11339;BME280;5724;42.684;23.252;2023-08-24T08:59:52;94539.84;;;30.23;43.57
11339;BME280;5724;42.684;23.252;2023-08-24T09:02:19;94535.59;;;30.42;43.29
11339;BME280;5724;42.684;23.252;2023-08-24T09:04:45;94528.97;;;30.45;43.43
11339;BME280;5724;42.684;23.252;2023-08-24T09:07:15;94525.59;;;30.56;42.60
11339;BME280;5724;42.684;23.252;2023-08-24T09:09:41;94520.72;;;30.56;42.54
11339;BME280;5724;42.684;23.252;2023-08-24T09:12:07;94500.91;;;30.65;42.01
11339;BME280;5724;42.684;23.252;2023-08-24T09:14:33;94514.84;;;30.98;42.07
11339;BME280;5724;42.684;23.252;2023-08-24T09:16:58;94513.94;;;30.92;42.78
11339;BME280;5724;42.684;23.252;2023-08-24T09:19:32;94514.13;;;31.18;42.53
11339;BME280;5724;42.684;23.252;2023-08-24T09:22:01;94509.66;;;31.12;41.29
11339;BME280;5724;42.684;23.252;2023-08-24T09:24:31;94503.50;;;31.13;41.39
11339;BME280;5724;42.684;23.252;2023-08-24T09:26:57;94495.41;;;31.36;41.26
11339;BME280;5724;42.684;23.252;2023-08-24T09:29:22;94500.88;;;31.39;41.25
11339;BME280;5724;42.684;23.252;2023-08-24T09:31:50;94497.44;;;31.70;40.46
11339;BME280;5724;42.684;23.252;2023-08-24T09:34:19;94487.03;;;31.97;40.54
11339;BME280;5724;42.684;23.252;2023-08-24T09:36:45;94482.50;;;31.84;40.58
11339;BME280;5724;42.684;23.252;2023-08-24T09:39:11;94490.78;;;32.08;39.63
11339;BME280;5724;42.684;23.252;2023-08-24T09:41:37;94478.28;;;31.95;39.15
11339;BME280;5724;42.684;23.252;2023-08-24T09:44:04;94482.78;;;32.07;39.60
11339;BME280;5724;42.684;23.252;2023-08-24T09:46:29;94484.13;;;32.11;39.30
11339;BME280;5724;42.684;23.252;2023-08-24T09:48:55;94476.13;;;32.30;38.48
11339;BME280;5724;42.684;23.252;2023-08-24T09:51:25;94480.69;;;32.48;38.20
11339;BME280;5724;42.684;23.252;2023-08-24T09:53:51;94471.47;;;32.79;38.07
11339;BME280;5724;42.684;23.252;2023-08-24T09:56:18;94467.38;;;32.54;38.40
11339;BME280;5724;42.684;23.252;2023-08-24T09:58:46;94462.97;;;32.79;38.98
11339;BME280;5724;42.684;23.252;2023-08-24T10:01:13;94467.34;;;32.80;37.83
11339;BME280;5724;42.684;23.252;2023-08-24T10:03:40;94456.63;;;32.84;37.26
11339;BME280;5724;42.684;23.252;2023-08-24T10:06:09;94456.63;;;32.84;37.17
11339;BME280;5724;42.684;23.252;2023-08-24T10:08:36;94462.88;;;32.68;37.41
11339;BME280;5724;42.684;23.252;2023-08-24T10:11:03;94456.03;;;32.80;37.43
11339;BME280;5724;42.684;23.252;2023-08-24T10:13:41;94457.31;;;32.79;37.39
11339;BME280;5724;42.684;23.252;2023-08-24T10:16:09;94449.56;;;32.74;37.22
11339;BME280;5724;42.684;23.252;2023-08-24T10:18:40;94450.09;;;32.78;36.71
11339;BME280;5724;42.684;23.252;2023-08-24T10:21:06;94450.88;;;33.10;36.78
11339;BME280;5724;42.684;23.252;2023-08-24T10:23:32;94448.09;;;32.53;35.02
11339;BME280;5724;42.684;23.252;2023-08-24T10:26:02;94468.13;;;32.29;35.37
11339;BME280;5724;42.684;23.252;2023-08-24T10:28:28;94456.91;;;31.94;35.25
11339;BME280;5724;42.684;23.252;2023-08-24T10:30:57;94458.47;;;32.35;34.34
11339;BME280;5724;42.684;23.252;2023-08-24T10:33:24;94437.00;;;32.29;35.13
11339;BME280;5724;42.684;23.252;2023-08-24T10:35:52;94426.72;;;31.79;36.04
11339;BME280;5724;42.684;23.252;2023-08-24T10:38:27;94432.84;;;31.78;36.17
11339;BME280;5724;42.684;23.252;2023-08-24T10:40:53;94437.72;;;31.77;36.19
11339;BME280;5724;42.684;23.252;2023-08-24T10:43:19;94439.38;;;32.10;35.82
11339;BME280;5724;42.684;23.252;2023-08-24T12:24:08;94402.31;;;27.80;45.10
11339;BME280;5724;42.684;23.252;2023-08-24T12:26:35;94398.25;;;28.00;44.19
11339;BME280;5724;42.684;23.252;2023-08-24T12:29:08;94399.75;;;28.19;44.34
11339;BME280;5724;42.684;23.252;2023-08-24T12:31:34;94384.31;;;28.14;43.97
11339;BME280;5724;42.684;23.252;2023-08-24T13:34:30;94417.75;;;29.30;44.70
11339;BME280;5724;42.684;23.252;2023-08-24T13:36:56;94403.41;;;29.28;45.22
11339;BME280;5724;42.684;23.252;2023-08-24T13:39:27;94411.84;;;29.28;44.68
11339;BME280;5724;42.684;23.252;2023-08-24T13:41:56;94415.06;;;29.35;44.37
11339;BME280;5724;42.684;23.252;2023-08-24T13:44:22;94412.19;;;29.45;44.04
11339;BME280;5724;42.684;23.252;2023-08-24T13:46:47;94418.25;;;29.52;43.96
11339;BME280;5724;42.684;23.252;2023-08-24T13:49:13;94421.72;;;29.47;44.40
11339;BME280;5724;42.684;23.252;2023-08-24T13:51:38;94441.56;;;29.53;43.80
11339;BME280;5724;42.684;23.252;2023-08-24T13:54:14;94442.03;;;29.51;43.63
11339;BME280;5724;42.684;23.252;2023-08-24T13:56:41;94459.47;;;29.64;43.71
11339;BME280;5724;42.684;23.252;2023-08-24T13:59:07;94461.47;;;29.73;43.69
11339;BME280;5724;42.684;23.252;2023-08-24T14:01:32;94460.84;;;29.69;43.65
11339;BME280;5724;42.684;23.252;2023-08-24T14:03:58;94459.66;;;29.61;43.41
11339;BME280;5724;42.684;23.252;2023-08-24T14:06:24;94446.06;;;29.59;44.04
11339;BME280;5724;42.684;23.252;2023-08-24T14:08:49;94452.28;;;29.63;43.85
11339;BME280;5724;42.684;23.252;2023-08-24T14:11:15;94445.34;;;29.74;45.13
11339;BME280;5724;42.684;23.252;2023-08-24T14:13:42;94440.78;;;29.76;44.69
11339;BME280;5724;42.684;23.252;2023-08-24T14:16:07;94428.81;;;29.81;44.99
11339;BME280;5724;42.684;23.252;2023-08-24T14:18:32;94420.75;;;29.74;44.49
11339;BME280;5724;42.684;23.252;2023-08-24T14:21:01;94422.41;;;29.81;44.85
11339;BME280;5724;42.684;23.252;2023-08-24T14:23:27;94424.78;;;29.82;45.31
11339;BME280;5724;42.684;23.252;2023-08-24T14:25:52;94430.41;;;29.82;45.58
11339;BME280;5724;42.684;23.252;2023-08-24T14:28:20;94421.53;;;29.75;44.29
11339;BME280;5724;42.684;23.252;2023-08-24T14:30:46;94435.97;;;29.68;44.64
11339;BME280;5724;42.684;23.252;2023-08-24T14:33:11;94439.69;;;29.26;46.75
11339;BME280;5724;42.684;23.252;2023-08-24T14:35:37;94440.69;;;28.71;48.52
11339;BME280;5724;42.684;23.252;2023-08-24T14:38:02;94435.03;;;28.29;49.71
11339;BME280;5724;42.684;23.252;2023-08-24T14:40:28;94438.47;;;28.15;50.47
11339;BME280;5724;42.684;23.252;2023-08-24T14:42:53;94416.63;;;28.10;50.17
11339;BME280;5724;42.684;23.252;2023-08-24T14:45:20;94408.81;;;28.14;50.02
11339;BME280;5724;42.684;23.252;2023-08-24T14:47:45;94401.06;;;27.81;51.12
11339;BME280;5724;42.684;23.252;2023-08-24T14:50:11;94405.13;;;27.89;51.15
11339;BME280;5724;42.684;23.252;2023-08-24T14:52:37;94400.44;;;27.86;51.00
11339;BME280;5724;42.684;23.252;2023-08-24T14:55:04;94380.16;;;27.91;51.01
11339;BME280;5724;42.684;23.252;2023-08-24T14:57:29;94371.84;;;27.97;50.76
11339;BME280;5724;42.684;23.252;2023-08-24T14:59:55;94380.53;;;28.17;50.31
11339;BME280;5724;42.684;23.252;2023-08-24T15:02:20;94381.03;;;28.16;49.88
11339;BME280;5724;42.684;23.252;2023-08-24T15:04:45;94378.09;;;28.10;50.02
11339;BME280;5724;42.684;23.252;2023-08-24T15:07:11;94393.53;;;28.06;50.25
11339;BME280;5724;42.684;23.252;2023-08-24T15:09:36;94396.19;;;28.09;49.99
11339;BME280;5724;42.684;23.252;2023-08-24T15:12:02;94402.25;;;28.17;50.06
11339;BME280;5724;42.684;23.252;2023-08-24T15:14:30;94397.75;;;28.29;49.50
11339;BME280;5724;42.684;23.252;2023-08-24T15:16:55;94398.34;;;28.33;49.03
11339;BME280;5724;42.684;23.252;2023-08-24T15:19:21;94400.03;;;28.39;49.05
11339;BME280;5724;42.684;23.252;2023-08-24T15:21:46;94400.91;;;28.55;48.50
11339;BME280;5724;42.684;23.252;2023-08-24T15:24:11;94414.97;;;28.55;48.14
11339;BME280;5724;42.684;23.252;2023-08-24T15:26:37;94415.75;;;28.55;48.45
11339;BME280;5724;42.684;23.252;2023-08-24T15:29:13;94421.28;;;28.40;49.18
11339;BME280;5724;42.684;23.252;2023-08-24T15:31:41;94419.38;;;28.46;48.95
11339;BME280;5724;42.684;23.252;2023-08-24T15:34:07;94410.94;;;28.46;48.57
11339;BME280;5724;42.684;23.252;2023-08-24T15:36:33;94424.84;;;28.50;48.39
11339;BME280;5724;42.684;23.252;2023-08-24T15:38:58;94424.09;;;28.40;48.32
11339;BME280;5724;42.684;23.252;2023-08-24T15:41:24;94420.94;;;28.47;48.28
11339;BME280;5724;42.684;23.252;2023-08-24T15:43:50;94414.06;;;28.48;47.86